sensor_id;sensor_type;location;lat;lon;timestamp;pressure;altitude;pressure_sealevel;temperature;humidity
60479;BME280;46321;48.398;11.754;2023-06-22T00:01:58;96725.69;;;20.57;75.75
60479;BME280;46321;48.398;11.754;2023-06-22T00:04:23;96719.63;;;20.62;75.39
60479;BME280;46321;48.398;11.754;2023-06-22T00:06:49;96711.56;;;20.50;75.71
60479;BME280;46321;48.398;11.754;2023-06-22T00:09:14;96703.13;;;20.46;76.26
60479;BME280;46321;48.398;11.754;2023-06-22T00:11:39;96698.13;;;20.38;76.16
60479;BME280;46321;48.398;11.754;2023-06-22T00:14:05;96690.53;;;20.22;76.68
60479;BME280;46321;48.398;11.754;2023-06-22T00:16:33;96679.88;;;20.16;76.86
60479;BME280;46321;48.398;11.754;2023-06-22T00:18:58;96662.81;;;20.10;76.96
60479;BME280;46321;48.398;11.754;2023-06-22T00:21:28;96677.41;;;20.14;77.08
60479;BME280;46321;48.398;11.754;2023-06-22T00:23:53;96658.69;;;20.07;77.11
60479;BME280;46321;48.398;11.754;2023-06-22T00:26:19;96662.31;;;20.01;77.35
60479;BME280;46321;48.398;11.754;2023-06-22T00:28:44;96667.22;;;20.04;76.94
60479;BME280;46321;48.398;11.754;2023-06-22T00:31:09;96666.66;;;20.02;77.15
60479;BME280;46321;48.398;11.754;2023-06-22T00:33:35;96655.88;;;19.90;77.49
60479;BME280;46321;48.398;11.754;2023-06-22T00:36:00;96642.31;;;19.73;78.57
60479;BME280;46321;48.398;11.754;2023-06-22T00:38:28;96651.00;;;19.87;77.61
60479;BME280;46321;48.398;11.754;2023-06-22T00:40:53;96659.38;;;19.90;77.89
60479;BME280;46321;48.398;11.754;2023-06-22T00:43:19;96648.19;;;19.94;77.45
60479;BME280;46321;48.398;11.754;2023-06-22T00:45:44;96642.69;;;19.88;77.39
60479;BME280;46321;48.398;11.754;2023-06-22T00:48:11;96640.13;;;19.94;77.18
60479;BME280;46321;48.398;11.754;2023-06-22T00:50:37;96651.56;;;19.89;77.29
60479;BME280;46321;48.398;11.754;2023-06-22T00:53:05;96652.72;;;19.81;77.90
60479;BME280;46321;48.398;11.754;2023-06-22T00:55:36;96647.22;;;19.76;78.12
60479;BME280;46321;48.398;11.754;2023-06-22T00:58:04;96644.22;;;19.84;77.57
60479;BME280;46321;48.398;11.754;2023-06-22T01:00:33;96650.03;;;19.81;77.51
60479;BME280;46321;48.398;11.754;2023-06-22T01:02:58;96653.53;;;19.82;77.45
60479;BME280;46321;48.398;11.754;2023-06-22T01:05:24;96654.22;;;19.77;77.59
60479;BME280;46321;48.398;11.754;2023-06-22T01:10:36;96649.78;;;19.71;78.00
60479;BME280;46321;48.398;11.754;2023-06-22T01:13:11;96649.31;;;19.74;77.54
60479;BME280;46321;48.398;11.754;2023-06-22T01:15:44;96649.19;;;19.80;77.96
60479;BME280;46321;48.398;11.754;2023-06-22T01:18:12;96651.88;;;19.80;77.44
60479;BME280;46321;48.398;11.754;2023-06-22T01:20:39;96644.91;;;19.79;77.21
60479;BME280;46321;48.398;11.754;2023-06-22T01:23:07;96654.81;;;19.79;77.32
60479;BME280;46321;48.398;11.754;2023-06-22T01:28:54;96643.13;;;19.73;78.07
60479;BME280;46321;48.398;11.754;2023-06-22T01:31:22;96636.59;;;19.69;77.85
60479;BME280;46321;48.398;11.754;2023-06-22T01:33:53;96627.25;;;19.72;77.85
60479;BME280;46321;48.398;11.754;2023-06-22T01:36:21;96627.94;;;19.67;78.12
60479;BME280;46321;48.398;11.754;2023-06-22T01:38:47;96626.75;;;19.63;78.18
60479;BME280;46321;48.398;11.754;2023-06-22T01:41:13;96625.09;;;19.50;78.93
60479;BME280;46321;48.398;11.754;2023-06-22T01:43:40;96630.03;;;19.53;78.81
60479;BME280;46321;48.398;11.754;2023-06-22T01:46:06;96623.25;;;19.50;78.62
60479;BME280;46321;48.398;11.754;2023-06-22T01:48:31;96631.16;;;19.45;79.02
60479;BME280;46321;48.398;11.754;2023-06-22T01:50:57;96637.00;;;19.42;78.78
60479;BME280;46321;48.398;11.754;2023-06-22T01:53:23;96634.06;;;19.43;78.99
60479;BME280;46321;48.398;11.754;2023-06-22T01:55:49;96627.53;;;19.39;79.11
60479;BME280;46321;48.398;11.754;2023-06-22T01:58:15;96623.19;;;19.38;79.22
60479;BME280;46321;48.398;11.754;2023-06-22T02:00:48;96631.72;;;19.35;79.50
60479;BME280;46321;48.398;11.754;2023-06-22T02:03:19;96632.75;;;19.34;79.24
60479;BME280;46321;48.398;11.754;2023-06-22T02:05:49;96636.00;;;19.24;79.87
60479;BME280;46321;48.398;11.754;2023-06-22T02:08:20;96632.25;;;19.25;79.90
60479;BME280;46321;48.398;11.754;2023-06-22T02:10:46;96634.03;;;19.31;79.73
60479;BME280;46321;48.398;11.754;2023-06-22T02:13:14;96640.38;;;19.37;79.44
60479;BME280;46321;48.398;11.754;2023-06-22T02:15:39;96636.50;;;19.33;79.13
60479;BME280;46321;48.398;11.754;2023-06-22T02:18:05;96641.28;;;19.31;79.50
60479;BME280;46321;48.398;11.754;2023-06-22T02:20:30;96644.25;;;19.22;80.25
60479;BME280;46321;48.398;11.754;2023-06-22T02:22:56;96641.00;;;19.20;80.19
60479;BME280;46321;48.398;11.754;2023-06-22T02:25:21;96646.81;;;19.17;80.92
60479;BME280;46321;48.398;11.754;2023-06-22T02:27:47;96652.41;;;19.16;81.18
60479;BME280;46321;48.398;11.754;2023-06-22T02:30:13;96653.38;;;19.21;80.70
60479;BME280;46321;48.398;11.754;2023-06-22T02:32:40;96655.66;;;19.18;80.75
60479;BME280;46321;48.398;11.754;2023-06-22T02:35:07;96650.31;;;19.18;80.92
60479;BME280;46321;48.398;11.754;2023-06-22T02:37:37;96644.72;;;19.19;80.72
60479;BME280;46321;48.398;11.754;2023-06-22T02:40:05;96649.19;;;19.26;80.43
60479;BME280;46321;48.398;11.754;2023-06-22T02:42:32;96644.56;;;19.14;81.53
60479;BME280;46321;48.398;11.754;2023-06-22T02:44:57;96646.88;;;19.10;81.69
60479;BME280;46321;48.398;11.754;2023-06-22T02:47:22;96653.59;;;19.01;82.51
60479;BME280;46321;48.398;11.754;2023-06-22T02:49:48;96648.81;;;19.03;82.56
60479;BME280;46321;48.398;11.754;2023-06-22T02:52:13;96648.16;;;19.08;82.70
60479;BME280;46321;48.398;11.754;2023-06-22T02:54:38;96637.34;;;18.96;82.85
60479;BME280;46321;48.398;11.754;2023-06-22T02:57:04;96636.09;;;18.98;82.54
60479;BME280;46321;48.398;11.754;2023-06-22T02:59:29;96635.78;;;19.07;82.37
60479;BME280;46321;48.398;11.754;2023-06-22T03:01:54;96631.31;;;19.00;82.82
60479;BME280;46321;48.398;11.754;2023-06-22T03:04:20;96626.53;;;19.03;82.53
60479;BME280;46321;48.398;11.754;2023-06-22T03:06:46;96629.81;;;19.05;82.50
60479;BME280;46321;48.398;11.754;2023-06-22T03:09:16;96636.25;;;19.04;82.69
60479;BME280;46321;48.398;11.754;2023-06-22T03:11:41;96628.09;;;19.10;82.06
60479;BME280;46321;48.398;11.754;2023-06-22T03:14:06;96630.97;;;18.97;83.09
60479;BME280;46321;48.398;11.754;2023-06-22T03:16:32;96629.69;;;18.99;83.06
60479;BME280;46321;48.398;11.754;2023-06-22T03:18:58;96625.13;;;19.00;83.01
60479;BME280;46321;48.398;11.754;2023-06-22T03:21:23;96634.59;;;19.03;83.10
60479;BME280;46321;48.398;11.754;2023-06-22T03:23:49;96625.50;;;19.04;82.87
60479;BME280;46321;48.398;11.754;2023-06-22T03:26:17;96631.66;;;19.04;82.71
60479;BME280;46321;48.398;11.754;2023-06-22T03:28:43;96627.13;;;19.05;82.98
60479;BME280;46321;48.398;11.754;2023-06-22T03:31:08;96623.13;;;18.95;83.60
60479;BME280;46321;48.398;11.754;2023-06-22T03:33:33;96618.81;;;18.94;83.93
60479;BME280;46321;48.398;11.754;2023-06-22T03:35:58;96629.06;;;18.97;84.17
60479;BME280;46321;48.398;11.754;2023-06-22T03:38:24;96622.69;;;18.98;84.36
60479;BME280;46321;48.398;11.754;2023-06-22T03:40:49;96626.78;;;19.01;83.88
60479;BME280;46321;48.398;11.754;2023-06-22T03:43:14;96629.31;;;18.96;84.40
60479;BME280;46321;48.398;11.754;2023-06-22T03:45:40;96632.22;;;18.94;84.42
60479;BME280;46321;48.398;11.754;2023-06-22T03:48:05;96633.31;;;19.05;84.08
60479;BME280;46321;48.398;11.754;2023-06-22T03:50:30;96635.91;;;19.12;83.77
60479;BME280;46321;48.398;11.754;2023-06-22T03:52:56;96634.66;;;19.15;83.79
60479;BME280;46321;48.398;11.754;2023-06-22T03:55:21;96634.44;;;19.16;83.91
60479;BME280;46321;48.398;11.754;2023-06-22T03:57:46;96636.88;;;19.18;83.33
60479;BME280;46321;48.398;11.754;2023-06-22T04:00:12;96636.44;;;19.21;83.14
60479;BME280;46321;48.398;11.754;2023-06-22T04:02:38;96637.88;;;19.24;83.48
60479;BME280;46321;48.398;11.754;2023-06-22T04:05:04;96636.81;;;19.25;83.67
60479;BME280;46321;48.398;11.754;2023-06-22T04:07:29;96644.06;;;19.24;83.65
60479;BME280;46321;48.398;11.754;2023-06-22T04:09:54;96640.78;;;19.22;83.99
60479;BME280;46321;48.398;11.754;2023-06-22T04:12:19;96638.69;;;19.24;83.89
60479;BME280;46321;48.398;11.754;2023-06-22T04:14:45;96636.94;;;19.30;83.68
60479;BME280;46321;48.398;11.754;2023-06-22T04:17:10;96631.72;;;19.35;83.32
60479;BME280;46321;48.398;11.754;2023-06-22T04:19:35;96634.63;;;19.33;83.57
60479;BME280;46321;48.398;11.754;2023-06-22T04:22:00;96633.72;;;19.40;83.22
60479;BME280;46321;48.398;11.754;2023-06-22T04:24:26;96629.75;;;19.42;83.33
60479;BME280;46321;48.398;11.754;2023-06-22T04:26:51;96632.47;;;19.54;82.97
60479;BME280;46321;48.398;11.754;2023-06-22T04:29:19;96626.28;;;19.54;82.75
60479;BME280;46321;48.398;11.754;2023-06-22T04:31:45;96631.28;;;19.50;83.14
60479;BME280;46321;48.398;11.754;2023-06-22T04:34:13;96631.78;;;19.59;82.79
60479;BME280;46321;48.398;11.754;2023-06-22T04:36:41;96636.94;;;19.73;82.10
60479;BME280;46321;48.398;11.754;2023-06-22T04:39:08;96619.91;;;19.79;81.09
60479;BME280;46321;48.398;11.754;2023-06-22T04:41:38;96627.88;;;19.98;80.74
60479;BME280;46321;48.398;11.754;2023-06-22T04:44:13;96622.00;;;20.01;80.70
60479;BME280;46321;48.398;11.754;2023-06-22T04:46:39;96620.41;;;20.00;80.78
60479;BME280;46321;48.398;11.754;2023-06-22T04:49:06;96620.66;;;20.10;80.39
60479;BME280;46321;48.398;11.754;2023-06-22T04:51:41;96624.75;;;20.25;79.71
60479;BME280;46321;48.398;11.754;2023-06-22T04:54:08;96632.53;;;20.39;79.51
60479;BME280;46321;48.398;11.754;2023-06-22T04:56:34;96632.78;;;20.49;78.92
60479;BME280;46321;48.398;11.754;2023-06-22T04:59:00;96636.03;;;20.63;77.67
60479;BME280;46321;48.398;11.754;2023-06-22T05:01:26;96629.22;;;20.73;77.48
60479;BME280;46321;48.398;11.754;2023-06-22T05:03:51;96624.66;;;20.85;76.82
60479;BME280;46321;48.398;11.754;2023-06-22T05:06:25;96625.66;;;20.96;76.07
60479;BME280;46321;48.398;11.754;2023-06-22T05:08:53;96625.31;;;21.04;75.62
60479;BME280;46321;48.398;11.754;2023-06-22T05:11:22;96624.34;;;21.11;76.08
60479;BME280;46321;48.398;11.754;2023-06-22T05:13:48;96626.16;;;21.22;75.42
60479;BME280;46321;48.398;11.754;2023-06-22T05:16:13;96625.13;;;21.23;74.58
60479;BME280;46321;48.398;11.754;2023-06-22T05:18:38;96618.63;;;21.36;75.07
60479;BME280;46321;48.398;11.754;2023-06-22T05:21:04;96618.19;;;21.27;74.57
60479;BME280;46321;48.398;11.754;2023-06-22T05:23:29;96620.66;;;21.46;73.74
60479;BME280;46321;48.398;11.754;2023-06-22T05:25:54;96620.19;;;21.49;74.22
60479;BME280;46321;48.398;11.754;2023-06-22T05:28:22;96623.03;;;21.60;73.05
60479;BME280;46321;48.398;11.754;2023-06-22T05:30:48;96630.09;;;21.78;72.73
60479;BME280;46321;48.398;11.754;2023-06-22T05:33:13;96626.84;;;21.93;71.91
60479;BME280;46321;48.398;11.754;2023-06-22T05:35:38;96624.22;;;21.99;71.79
60479;BME280;46321;48.398;11.754;2023-06-22T05:38:03;96626.84;;;22.11;71.58
60479;BME280;46321;48.398;11.754;2023-06-22T05:40:29;96626.41;;;22.19;71.30
60479;BME280;46321;48.398;11.754;2023-06-22T05:42:54;96616.50;;;22.25;70.88
60479;BME280;46321;48.398;11.754;2023-06-22T05:45:19;96621.91;;;22.25;69.69
60479;BME280;46321;48.398;11.754;2023-06-22T05:47:44;96618.03;;;22.15;69.66
60479;BME280;46321;48.398;11.754;2023-06-22T05:50:10;96621.69;;;22.26;68.83
60479;BME280;46321;48.398;11.754;2023-06-22T05:52:35;96618.97;;;22.26;68.95
60479;BME280;46321;48.398;11.754;2023-06-22T05:55:02;96609.97;;;22.38;68.88
60479;BME280;46321;48.398;11.754;2023-06-22T05:57:27;96611.34;;;22.40;68.00
60479;BME280;46321;48.398;11.754;2023-06-22T05:59:53;96605.06;;;22.35;69.12
60479;BME280;46321;48.398;11.754;2023-06-22T06:02:19;96605.31;;;22.33;69.33
60479;BME280;46321;48.398;11.754;2023-06-22T06:04:44;96610.28;;;22.41;69.69
60479;BME280;46321;48.398;11.754;2023-06-22T06:07:09;96603.75;;;22.37;69.74
60479;BME280;46321;48.398;11.754;2023-06-22T06:09:35;96596.91;;;22.52;69.58
60479;BME280;46321;48.398;11.754;2023-06-22T06:12:00;96610.53;;;22.40;68.25
60479;BME280;46321;48.398;11.754;2023-06-22T06:14:28;96603.97;;;22.53;68.09
60479;BME280;46321;48.398;11.754;2023-06-22T06:16:53;96599.06;;;22.50;68.62
60479;BME280;46321;48.398;11.754;2023-06-22T06:19:18;96590.19;;;22.72;67.72
60479;BME280;46321;48.398;11.754;2023-06-22T06:21:43;96594.13;;;22.86;67.59
60479;BME280;46321;48.398;11.754;2023-06-22T06:24:09;96593.41;;;22.96;66.57
60479;BME280;46321;48.398;11.754;2023-06-22T06:26:34;96599.25;;;23.10;65.34
60479;BME280;46321;48.398;11.754;2023-06-22T06:29:01;96600.75;;;23.01;64.66
60479;BME280;46321;48.398;11.754;2023-06-22T06:31:27;96600.19;;;22.99;65.17
60479;BME280;46321;48.398;11.754;2023-06-22T06:33:53;96613.09;;;22.92;64.59
60479;BME280;46321;48.398;11.754;2023-06-22T06:36:19;96598.81;;;22.96;65.01
60479;BME280;46321;48.398;11.754;2023-06-22T06:38:44;96604.25;;;23.24;64.64
60479;BME280;46321;48.398;11.754;2023-06-22T06:41:12;96593.78;;;23.05;62.72
60479;BME280;46321;48.398;11.754;2023-06-22T06:43:37;96593.22;;;23.31;63.38
60479;BME280;46321;48.398;11.754;2023-06-22T06:46:02;96592.69;;;23.29;62.41
60479;BME280;46321;48.398;11.754;2023-06-22T06:48:28;96591.00;;;23.50;62.63
60479;BME280;46321;48.398;11.754;2023-06-22T06:50:53;96579.53;;;23.71;62.12
60479;BME280;46321;48.398;11.754;2023-06-22T06:53:18;96571.28;;;23.83;62.24
60479;BME280;46321;48.398;11.754;2023-06-22T06:58:41;96564.03;;;23.94;60.38
60479;BME280;46321;48.398;11.754;2023-06-22T07:01:07;96568.16;;;24.01;60.82
60479;BME280;46321;48.398;11.754;2023-06-22T07:03:33;96570.72;;;23.81;60.07
60479;BME280;46321;48.398;11.754;2023-06-22T07:05:59;96574.66;;;24.06;60.51
60479;BME280;46321;48.398;11.754;2023-06-22T07:08:24;96580.50;;;24.30;59.93
60479;BME280;46321;48.398;11.754;2023-06-22T07:10:49;96576.16;;;24.29;58.30
60479;BME280;46321;48.398;11.754;2023-06-22T07:13:15;96570.03;;;24.50;58.64
60479;BME280;46321;48.398;11.754;2023-06-22T07:15:40;96573.88;;;24.59;58.08
60479;BME280;46321;48.398;11.754;2023-06-22T07:18:05;96581.25;;;24.79;56.96
60479;BME280;46321;48.398;11.754;2023-06-22T07:20:30;96584.75;;;24.75;56.34
60479;BME280;46321;48.398;11.754;2023-06-22T07:22:56;96581.50;;;24.78;55.08
60479;BME280;46321;48.398;11.754;2023-06-22T07:25:21;96575.84;;;24.79;54.29
60479;BME280;46321;48.398;11.754;2023-06-22T07:28:07;96573.97;;;24.96;53.72
60479;BME280;46321;48.398;11.754;2023-06-22T07:30:33;96581.66;;;25.25;53.54
60479;BME280;46321;48.398;11.754;2023-06-22T07:32:59;96569.75;;;25.26;53.11
60479;BME280;46321;48.398;11.754;2023-06-22T07:35:29;96571.66;;;25.41;52.43
60479;BME280;46321;48.398;11.754;2023-06-22T07:37:54;96562.19;;;25.65;52.18
60479;BME280;46321;48.398;11.754;2023-06-22T07:40:20;96555.13;;;25.64;51.68
60479;BME280;46321;48.398;11.754;2023-06-22T07:42:45;96558.38;;;25.87;51.51
60479;BME280;46321;48.398;11.754;2023-06-22T07:45:13;96555.97;;;25.85;50.24
60479;BME280;46321;48.398;11.754;2023-06-22T07:47:39;96559.16;;;26.08;49.65
60479;BME280;46321;48.398;11.754;2023-06-22T07:50:04;96562.16;;;26.12;50.17
60479;BME280;46321;48.398;11.754;2023-06-22T07:52:30;96544.75;;;26.23;50.33
60479;BME280;46321;48.398;11.754;2023-06-22T07:54:55;96547.47;;;26.18;49.89
60479;BME280;46321;48.398;11.754;2023-06-22T07:57:21;96550.13;;;26.34;50.14
60479;BME280;46321;48.398;11.754;2023-06-22T07:59:46;96538.94;;;26.61;48.73
60479;BME280;46321;48.398;11.754;2023-06-22T08:02:12;96536.78;;;26.53;48.89
60479;BME280;46321;48.398;11.754;2023-06-22T08:04:38;96541.09;;;26.59;48.23
60479;BME280;46321;48.398;11.754;2023-06-22T08:07:03;96542.44;;;26.67;48.77
60479;BME280;46321;48.398;11.754;2023-06-22T08:09:30;96543.63;;;26.96;49.30
60479;BME280;46321;48.398;11.754;2023-06-22T08:11:56;96544.28;;;27.23;48.46
60479;BME280;46321;48.398;11.754;2023-06-22T08:14:22;96533.97;;;27.25;47.33
60479;BME280;46321;48.398;11.754;2023-06-22T08:16:48;96537.88;;;27.48;47.15
60479;BME280;46321;48.398;11.754;2023-06-22T08:19:13;96544.53;;;27.61;47.25
60479;BME280;46321;48.398;11.754;2023-06-22T08:21:38;96533.44;;;27.87;46.06
60479;BME280;46321;48.398;11.754;2023-06-22T08:24:04;96525.03;;;28.14;45.82
60479;BME280;46321;48.398;11.754;2023-06-22T08:26:29;96538.72;;;28.28;45.67
60479;BME280;46321;48.398;11.754;2023-06-22T08:28:54;96526.34;;;28.41;45.12
60479;BME280;46321;48.398;11.754;2023-06-22T08:31:20;96520.88;;;28.46;44.07
60479;BME280;46321;48.398;11.754;2023-06-22T08:33:45;96523.69;;;28.60;44.16
60479;BME280;46321;48.398;11.754;2023-06-22T08:36:11;96520.66;;;28.81;45.59
60479;BME280;46321;48.398;11.754;2023-06-22T08:38:38;96515.88;;;28.73;43.61
60479;BME280;46321;48.398;11.754;2023-06-22T08:41:03;96525.03;;;28.82;43.56
60479;BME280;46321;48.398;11.754;2023-06-22T08:43:29;96520.66;;;29.06;43.22
60479;BME280;46321;48.398;11.754;2023-06-22T08:45:54;96523.41;;;29.39;43.14
60479;BME280;46321;48.398;11.754;2023-06-22T08:48:19;96532.53;;;29.29;41.76
60479;BME280;46321;48.398;11.754;2023-06-22T08:50:45;96525.31;;;29.19;42.38
60479;BME280;46321;48.398;11.754;2023-06-22T08:53:10;96528.34;;;28.98;42.32
60479;BME280;46321;48.398;11.754;2023-06-22T08:55:35;96516.81;;;29.07;42.80
60479;BME280;46321;48.398;11.754;2023-06-22T08:58:00;96500.41;;;29.45;41.93
60479;BME280;46321;48.398;11.754;2023-06-22T09:00:26;96509.56;;;29.69;42.05
60479;BME280;46321;48.398;11.754;2023-06-22T09:02:53;96515.13;;;29.44;41.13
60479;BME280;46321;48.398;11.754;2023-06-22T09:05:23;96506.25;;;29.53;41.59
60479;BME280;46321;48.398;11.754;2023-06-22T09:07:50;96504.44;;;29.95;40.74
60479;BME280;46321;48.398;11.754;2023-06-22T09:10:15;96506.78;;;30.16;40.37
60479;BME280;46321;48.398;11.754;2023-06-22T09:12:40;96524.72;;;29.89;40.45
60479;BME280;46321;48.398;11.754;2023-06-22T09:15:06;96522.13;;;29.98;39.53
60479;BME280;46321;48.398;11.754;2023-06-22T09:17:32;96523.91;;;29.75;40.21
60479;BME280;46321;48.398;11.754;2023-06-22T09:19:58;96514.53;;;29.47;40.01
60479;BME280;46321;48.398;11.754;2023-06-22T09:22:23;96515.66;;;29.60;41.38
60479;BME280;46321;48.398;11.754;2023-06-22T09:24:53;96506.16;;;29.91;40.22
60479;BME280;46321;48.398;11.754;2023-06-22T09:27:19;96499.22;;;30.42;40.03
60479;BME280;46321;48.398;11.754;2023-06-22T09:29:44;96506.41;;;30.37;39.04
60479;BME280;46321;48.398;11.754;2023-06-22T09:32:10;96496.16;;;30.57;39.72
60479;BME280;46321;48.398;11.754;2023-06-22T09:34:35;96488.78;;;30.58;39.15
60479;BME280;46321;48.398;11.754;2023-06-22T09:37:00;96498.22;;;31.35;39.04
60479;BME280;46321;48.398;11.754;2023-06-22T09:39:26;96497.47;;;31.66;37.72
60479;BME280;46321;48.398;11.754;2023-06-22T09:41:51;96496.13;;;31.86;37.68
60479;BME280;46321;48.398;11.754;2023-06-22T09:44:16;96493.44;;;31.63;37.14
60479;BME280;46321;48.398;11.754;2023-06-22T09:46:42;96486.22;;;31.45;37.50
60479;BME280;46321;48.398;11.754;2023-06-22T09:49:07;96484.59;;;31.67;37.80
60479;BME280;46321;48.398;11.754;2023-06-22T09:51:32;96485.78;;;31.74;37.17
60479;BME280;46321;48.398;11.754;2023-06-22T09:53:58;96486.44;;;31.80;36.12
60479;BME280;46321;48.398;11.754;2023-06-22T09:56:23;96477.97;;;31.36;36.71
60479;BME280;46321;48.398;11.754;2023-06-22T09:58:49;96489.53;;;31.09;37.43
60479;BME280;46321;48.398;11.754;2023-06-22T10:01:18;96488.38;;;31.25;36.97
60479;BME280;46321;48.398;11.754;2023-06-22T10:03:43;96480.47;;;31.23;36.94
60479;BME280;46321;48.398;11.754;2023-06-22T10:06:08;96477.94;;;31.50;37.27
60479;BME280;46321;48.398;11.754;2023-06-22T10:08:34;96474.00;;;31.65;36.92
60479;BME280;46321;48.398;11.754;2023-06-22T10:10:59;96481.34;;;31.56;36.31
60479;BME280;46321;48.398;11.754;2023-06-22T10:13:25;96477.47;;;31.57;35.96
60479;BME280;46321;48.398;11.754;2023-06-22T10:15:50;96471.22;;;31.56;37.33
60479;BME280;46321;48.398;11.754;2023-06-22T10:18:17;96467.63;;;31.79;36.90
60479;BME280;46321;48.398;11.754;2023-06-22T10:20:43;96464.63;;;31.98;36.52
60479;BME280;46321;48.398;11.754;2023-06-22T10:23:08;96465.59;;;32.02;36.45
60479;BME280;46321;48.398;11.754;2023-06-22T10:25:34;96464.25;;;32.22;36.24
60479;BME280;46321;48.398;11.754;2023-06-22T10:27:59;96457.22;;;31.98;36.22
60479;BME280;46321;48.398;11.754;2023-06-22T10:30:24;96458.13;;;32.17;36.81
60479;BME280;46321;48.398;11.754;2023-06-22T10:32:50;96459.00;;;31.94;36.78
60479;BME280;46321;48.398;11.754;2023-06-22T10:35:15;96450.41;;;32.28;37.92
60479;BME280;46321;48.398;11.754;2023-06-22T10:37:43;96457.72;;;32.00;35.40
60479;BME280;46321;48.398;11.754;2023-06-22T10:40:08;96447.97;;;31.76;36.36
60479;BME280;46321;48.398;11.754;2023-06-22T10:42:34;96452.38;;;31.95;37.31
60479;BME280;46321;48.398;11.754;2023-06-22T10:44:59;96445.59;;;31.93;35.80
60479;BME280;46321;48.398;11.754;2023-06-22T10:47:24;96445.25;;;31.76;35.67
60479;BME280;46321;48.398;11.754;2023-06-22T10:49:51;96439.81;;;31.85;36.21
60479;BME280;46321;48.398;11.754;2023-06-22T10:52:16;96439.53;;;32.05;36.29
60479;BME280;46321;48.398;11.754;2023-06-22T10:54:41;96439.28;;;31.74;36.20
60479;BME280;46321;48.398;11.754;2023-06-22T10:57:07;96437.53;;;31.79;36.50
60479;BME280;46321;48.398;11.754;2023-06-22T10:59:32;96432.66;;;31.67;36.84
60479;BME280;46321;48.398;11.754;2023-06-22T11:01:58;96426.00;;;31.50;36.42
60479;BME280;46321;48.398;11.754;2023-06-22T11:04:23;96428.00;;;31.67;36.81
60479;BME280;46321;48.398;11.754;2023-06-22T11:06:49;96416.34;;;32.02;36.66
60479;BME280;46321;48.398;11.754;2023-06-22T11:09:15;96421.06;;;32.10;36.18
60479;BME280;46321;48.398;11.754;2023-06-22T11:11:46;96416.25;;;32.25;36.13
60479;BME280;46321;48.398;11.754;2023-06-22T11:14:12;96418.19;;;32.33;36.16
60479;BME280;46321;48.398;11.754;2023-06-22T11:16:37;96415.84;;;31.91;36.85
60479;BME280;46321;48.398;11.754;2023-06-22T11:19:04;96409.19;;;31.74;36.56
60479;BME280;46321;48.398;11.754;2023-06-22T11:21:30;96409.88;;;31.89;35.93
60479;BME280;46321;48.398;11.754;2023-06-22T11:23:56;96406.69;;;32.05;36.05
60479;BME280;46321;48.398;11.754;2023-06-22T11:26:21;96404.09;;;31.99;36.22
60479;BME280;46321;48.398;11.754;2023-06-22T11:28:46;96399.94;;;32.02;35.64
60479;BME280;46321;48.398;11.754;2023-06-22T11:31:12;96398.06;;;32.29;34.72
60479;BME280;46321;48.398;11.754;2023-06-22T11:33:37;96398.53;;;32.22;34.54
60479;BME280;46321;48.398;11.754;2023-06-22T11:36:02;96387.59;;;32.22;35.23
60479;BME280;46321;48.398;11.754;2023-06-22T11:38:28;96383.91;;;32.36;35.48
60479;BME280;46321;48.398;11.754;2023-06-22T11:40:53;96380.69;;;32.43;34.73
60479;BME280;46321;48.398;11.754;2023-06-22T11:43:19;96388.09;;;32.33;36.20
60479;BME280;46321;48.398;11.754;2023-06-22T11:45:44;96385.34;;;32.25;35.90
60479;BME280;46321;48.398;11.754;2023-06-22T11:48:09;96382.47;;;32.30;35.55
60479;BME280;46321;48.398;11.754;2023-06-22T11:50:35;96378.56;;;32.31;35.75
60479;BME280;46321;48.398;11.754;2023-06-22T11:53:02;96374.88;;;32.36;36.30
60479;BME280;46321;48.398;11.754;2023-06-22T11:55:28;96371.34;;;32.53;35.83
60479;BME280;46321;48.398;11.754;2023-06-22T11:57:57;96377.47;;;32.41;36.26
60479;BME280;46321;48.398;11.754;2023-06-22T12:00:25;96367.16;;;32.29;36.63
60479;BME280;46321;48.398;11.754;2023-06-22T12:02:51;96355.56;;;32.23;35.71
60479;BME280;46321;48.398;11.754;2023-06-22T12:05:19;96364.56;;;32.15;35.98
60479;BME280;46321;48.398;11.754;2023-06-22T12:07:45;96356.47;;;32.00;36.37
60479;BME280;46321;48.398;11.754;2023-06-22T12:10:11;96362.81;;;32.10;35.37
60479;BME280;46321;48.398;11.754;2023-06-22T12:12:36;96362.63;;;32.15;35.80
60479;BME280;46321;48.398;11.754;2023-06-22T12:15:01;96342.34;;;32.25;36.45
60479;BME280;46321;48.398;11.754;2023-06-22T12:17:29;96349.59;;;32.39;35.76
60479;BME280;46321;48.398;11.754;2023-06-22T12:19:54;96343.94;;;32.35;36.06
60479;BME280;46321;48.398;11.754;2023-06-22T12:22:19;96348.16;;;32.50;35.91
60479;BME280;46321;48.398;11.754;2023-06-22T12:24:45;96336.25;;;32.64;35.80
60479;BME280;46321;48.398;11.754;2023-06-22T12:27:10;96336.06;;;32.60;35.19
60479;BME280;46321;48.398;11.754;2023-06-22T12:29:35;96327.69;;;32.74;35.07
60479;BME280;46321;48.398;11.754;2023-06-22T12:32:00;96331.72;;;32.59;35.80
60479;BME280;46321;48.398;11.754;2023-06-22T12:34:26;96327.53;;;32.53;34.78
60479;BME280;46321;48.398;11.754;2023-06-22T12:36:51;96321.41;;;32.56;35.01
60479;BME280;46321;48.398;11.754;2023-06-22T12:39:19;96328.03;;;32.55;36.26
60479;BME280;46321;48.398;11.754;2023-06-22T12:41:44;96329.63;;;32.38;35.70
60479;BME280;46321;48.398;11.754;2023-06-22T12:44:09;96317.72;;;32.25;36.30
60479;BME280;46321;48.398;11.754;2023-06-22T12:46:34;96314.81;;;32.66;36.42
60479;BME280;46321;48.398;11.754;2023-06-22T12:49:03;96315.25;;;32.86;36.89
60479;BME280;46321;48.398;11.754;2023-06-22T12:51:31;96310.22;;;32.97;35.26
60479;BME280;46321;48.398;11.754;2023-06-22T12:53:56;96315.50;;;33.11;35.02